createdAt,value
2023-03-12T00:00:29.041Z,10.63
2023-03-12T00:03:35.235Z,13.80
2023-03-12T00:06:39.269Z,12.20
2023-03-12T00:09:47.222Z,9.75
2023-03-12T00:12:51.286Z,12.60
2023-03-12T00:15:57.251Z,12.30
2023-03-12T00:19:01.224Z,11.93
2023-03-12T00:22:07.206Z,10.00
2023-03-12T00:25:17.207Z,15.60
2023-03-12T00:28:23.263Z,13.85
2023-03-12T00:31:29.698Z,22.23
2023-03-12T00:34:35.698Z,23.10
2023-03-12T00:37:40.361Z,21.25
2023-03-12T00:40:48.493Z,23.58
2023-03-12T00:43:53.494Z,25.90
2023-03-12T00:46:59.474Z,25.23
2023-03-12T00:50:03.471Z,22.17
2023-03-12T00:53:09.420Z,20.58
2023-03-12T00:56:15.627Z,21.85
2023-03-12T00:59:21.808Z,15.57
2023-03-12T01:02:25.963Z,13.50
2023-03-12T01:05:36.985Z,15.35
2023-03-12T01:08:41.248Z,16.30
2023-03-12T01:11:48.989Z,12.02
2023-03-12T01:14:52.878Z,12.77
2023-03-12T01:17:59.051Z,16.27
2023-03-12T01:21:03.445Z,15.85
2023-03-12T01:24:10.005Z,13.18
2023-03-12T01:27:15.874Z,16.08
2023-03-12T01:30:23.086Z,17.77
2023-03-12T01:33:27.094Z,12.90
2023-03-12T01:36:33.111Z,19.20
2023-03-12T01:39:37.220Z,11.45
2023-03-12T01:42:45.101Z,12.90
2023-03-12T01:46:05.088Z,11.75
2023-03-12T01:49:14.601Z,13.70
2023-03-12T01:52:23.424Z,14.25
2023-03-12T01:55:32.316Z,17.55
2023-03-12T01:58:42.036Z,9.77
2023-03-12T02:01:49.166Z,11.95
2023-03-12T02:05:06.101Z,11.80
2023-03-12T02:08:12.593Z,13.00
2023-03-12T02:11:17.015Z,10.52
2023-03-12T02:14:25.126Z,9.65
2023-03-12T02:17:29.458Z,13.98
2023-03-12T02:20:41.647Z,9.00
2023-03-12T02:23:51.211Z,11.52
2023-03-12T02:27:00.114Z,9.18
2023-03-12T02:30:05.232Z,11.77
2023-03-12T02:33:14.476Z,13.60
2023-03-12T02:36:18.424Z,12.95
2023-03-12T02:39:24.605Z,9.88
2023-03-12T02:42:33.094Z,15.80
2023-03-12T02:45:38.391Z,14.55
2023-03-12T02:48:44.596Z,12.95
2023-03-12T02:51:49.011Z,12.13
2023-03-12T02:54:54.938Z,8.90
2023-03-12T02:58:01.112Z,9.68
2023-03-12T03:01:09.059Z,14.68
2023-03-12T03:04:13.723Z,10.75
2023-03-12T03:07:19.761Z,14.00
2023-03-12T03:10:23.717Z,10.98
2023-03-12T03:13:31.714Z,16.10
2023-03-12T03:16:36.018Z,14.27
2023-03-12T03:19:41.912Z,12.10
2023-03-12T03:22:46.074Z,11.45
2023-03-12T03:25:52.506Z,12.40
2023-03-12T03:28:58.372Z,14.20
2023-03-12T03:32:04.728Z,14.30
2023-03-12T03:35:09.533Z,15.88
2023-03-12T03:38:15.737Z,10.95
2023-03-12T03:41:20.844Z,18.38
2023-03-12T03:44:29.894Z,15.02
2023-03-12T03:47:33.883Z,14.20
2023-03-12T03:50:40.654Z,11.25
2023-03-12T03:53:45.515Z,15.48
2023-03-12T03:56:51.709Z,14.80
2023-03-12T03:59:58.278Z,16.20
2023-03-12T04:03:04.381Z,10.98
2023-03-12T04:06:09.790Z,13.13
2023-03-12T04:09:16.133Z,9.18
2023-03-12T04:12:20.312Z,12.20
2023-03-12T04:15:28.403Z,10.35
2023-03-12T04:18:32.659Z,11.25
2023-03-12T04:21:40.954Z,16.02
2023-03-12T04:24:45.449Z,13.80
2023-03-12T04:27:52.048Z,13.70
2023-03-12T04:31:00.709Z,13.10
2023-03-12T04:34:14.301Z,12.18
2023-03-12T04:37:19.425Z,8.50
2023-03-12T04:40:26.027Z,9.68
2023-03-12T04:43:35.893Z,8.25
2023-03-12T04:46:44.874Z,11.75
2023-03-12T04:49:52.631Z,8.35
2023-03-12T04:52:58.771Z,20.75
2023-03-12T04:56:03.384Z,8.63
2023-03-12T04:59:11.393Z,18.08
2023-03-12T05:02:18.707Z,7.30
2023-03-12T05:05:25.160Z,11.70
2023-03-12T05:08:29.333Z,14.18
2023-03-12T05:11:35.447Z,7.72
2023-03-12T05:14:39.878Z,7.40
2023-03-12T05:17:49.070Z,8.45
2023-03-12T05:21:00.494Z,6.90
2023-03-12T05:24:07.043Z,7.32
2023-03-12T05:27:11.250Z,11.77
2023-03-12T05:30:18.421Z,6.45
2023-03-12T05:33:24.834Z,7.45
2023-03-12T05:36:31.172Z,16.95
2023-03-12T05:39:35.191Z,6.93
2023-03-12T05:42:44.280Z,12.77
2023-03-12T05:45:48.750Z,15.55
2023-03-12T05:48:56.901Z,12.63
2023-03-12T05:52:01.276Z,7.63
2023-03-12T05:55:09.050Z,10.10
2023-03-12T05:58:13.313Z,14.35
2023-03-12T06:01:22.729Z,12.98
2023-03-12T06:04:28.870Z,11.60
2023-03-12T06:07:34.742Z,9.77
2023-03-12T06:10:40.281Z,15.30
2023-03-12T06:13:46.505Z,10.68
2023-03-12T06:16:50.475Z,12.40
2023-03-12T06:19:59.144Z,12.73
2023-03-12T06:23:03.174Z,12.35
2023-03-12T06:26:12.023Z,9.80
2023-03-12T06:29:16.370Z,10.52
2023-03-12T06:32:22.876Z,11.43
2023-03-12T06:35:28.690Z,9.43
2023-03-12T06:38:35.104Z,12.07
2023-03-12T06:41:40.844Z,9.90
2023-03-12T06:44:46.924Z,8.75
2023-03-12T06:47:51.138Z,7.47
2023-03-12T06:50:59.131Z,7.53
2023-03-12T06:54:03.020Z,7.72
2023-03-12T06:57:08.911Z,10.60
2023-03-12T07:00:14.499Z,9.95
2023-03-12T07:03:20.662Z,9.70
2023-03-12T07:06:27.028Z,10.43
2023-03-12T07:09:32.924Z,6.82
2023-03-12T07:12:36.971Z,8.10
2023-03-12T07:15:44.477Z,7.90
2023-03-12T07:18:48.523Z,7.63
2023-03-12T07:21:56.317Z,6.80
2023-03-12T07:25:00.179Z,8.25
2023-03-12T07:28:06.949Z,12.60
2023-03-12T07:31:10.938Z,8.32
2023-03-12T07:34:17.446Z,11.25
2023-03-12T07:37:23.547Z,11.43
2023-03-12T07:40:30.207Z,11.65
2023-03-12T07:43:34.392Z,8.73
2023-03-12T07:46:40.596Z,7.80
2023-03-12T07:49:44.569Z,13.60
2023-03-12T07:52:52.762Z,7.30
2023-03-12T07:55:56.840Z,8.63
2023-03-12T07:59:03.160Z,11.07
2023-03-12T08:02:08.373Z,4.95
2023-03-12T08:05:14.544Z,8.77
2023-03-12T08:08:20.946Z,10.02
2023-03-12T08:11:26.888Z,6.03
2023-03-12T08:14:31.305Z,7.88
2023-03-12T08:17:37.271Z,9.80
2023-03-12T08:20:41.340Z,7.68
2023-03-12T08:23:49.948Z,13.15
2023-03-12T08:26:53.869Z,8.13
2023-03-12T08:29:59.999Z,5.10
2023-03-12T08:33:03.903Z,7.60
2023-03-12T08:36:10.410Z,11.48
2023-03-12T08:39:16.378Z,11.18
2023-03-12T08:42:22.330Z,10.13
2023-03-12T08:45:26.215Z,7.82
2023-03-12T08:48:33.651Z,11.63
2023-03-12T08:51:37.568Z,11.35
2023-03-12T08:54:45.765Z,6.95
2023-03-12T08:57:49.870Z,10.07
2023-03-12T09:00:56.867Z,8.48
2023-03-12T09:04:02.017Z,8.10
2023-03-12T09:07:09.144Z,14.35
2023-03-12T09:10:15.294Z,13.70
2023-03-12T09:13:21.215Z,17.10
2023-03-12T09:16:25.403Z,8.65
2023-03-12T09:19:31.576Z,14.43
2023-03-12T09:22:36.315Z,8.63
2023-03-12T09:25:47.386Z,13.93
2023-03-12T09:28:51.493Z,14.90
2023-03-12T09:31:57.641Z,7.85
2023-03-12T09:35:01.555Z,12.60
2023-03-12T09:38:07.769Z,12.32
2023-03-12T09:41:21.607Z,12.90
2023-03-12T09:44:33.508Z,16.42
2023-03-12T09:47:43.278Z,11.13
2023-03-12T09:50:51.982Z,12.85
2023-03-12T09:53:59.659Z,12.45
2023-03-12T09:57:15.963Z,13.60
2023-03-12T10:03:57.023Z,17.08
2023-03-12T10:07:09.422Z,14.48
2023-03-12T10:10:37.968Z,14.57
2023-03-12T10:14:06.580Z,21.92
2023-03-12T10:17:29.466Z,17.25
2023-03-12T10:20:52.505Z,13.18
2023-03-12T10:24:11.999Z,16.88
2023-03-12T10:27:18.223Z,12.73
2023-03-12T10:30:28.484Z,20.75
2023-03-12T10:33:42.578Z,13.85
2023-03-12T10:36:50.840Z,10.93
2023-03-12T10:39:56.877Z,12.00
2023-03-12T10:43:03.916Z,10.82
2023-03-12T10:46:34.031Z,13.68
2023-03-12T10:49:40.602Z,12.63
2023-03-12T10:52:45.358Z,21.73
2023-03-12T10:56:01.605Z,13.68
2023-03-12T10:59:21.514Z,13.15
2023-03-12T11:02:35.735Z,10.80
2023-03-12T11:05:50.313Z,13.93
2023-03-12T11:09:17.025Z,11.40
2023-03-12T11:12:30.205Z,10.77
2023-03-12T11:15:41.168Z,16.77
2023-03-12T11:18:56.331Z,13.15
2023-03-12T11:22:04.071Z,13.40
2023-03-12T11:25:21.474Z,12.75
2023-03-12T11:28:33.080Z,13.57
2023-03-12T11:31:44.360Z,11.30
2023-03-12T11:38:04.413Z,18.80
2023-03-12T11:41:34.582Z,14.27
2023-03-12T11:44:49.358Z,10.45
2023-03-12T11:48:05.144Z,16.10
2023-03-12T11:51:24.673Z,17.95
2023-03-12T11:54:51.991Z,18.00
2023-03-12T11:58:10.271Z,18.85
2023-03-12T12:01:23.311Z,20.23
2023-03-12T12:04:51.770Z,18.63
2023-03-12T12:08:14.055Z,19.80
2023-03-12T12:11:23.452Z,21.52
2023-03-12T12:14:41.281Z,19.20
2023-03-12T12:17:56.892Z,19.10
2023-03-12T12:21:07.862Z,26.27
2023-03-12T12:24:25.588Z,19.55
2023-03-12T12:27:35.028Z,25.25
2023-03-12T12:30:52.737Z,30.25
2023-03-12T12:34:21.444Z,23.15
2023-03-12T12:37:36.077Z,26.50
2023-03-12T12:40:49.363Z,30.75
2023-03-12T12:43:57.427Z,35.05
2023-03-12T12:47:12.578Z,36.22
2023-03-12T12:50:21.332Z,31.70
2023-03-12T12:53:32.252Z,33.67
2023-03-12T12:56:46.178Z,32.55
2023-03-12T13:00:10.430Z,36.50
2023-03-12T13:03:17.363Z,36.40
2023-03-12T13:06:23.336Z,36.03
2023-03-12T13:09:42.844Z,36.40
2023-03-12T13:12:54.968Z,36.15
2023-03-12T13:16:23.300Z,31.35
2023-03-12T13:19:29.653Z,42.33
2023-03-12T13:22:57.624Z,52.83
2023-03-12T13:26:11.809Z,46.35
2023-03-12T13:29:37.746Z,46.80
2023-03-12T13:33:12.378Z,44.42
2023-03-12T13:36:25.009Z,44.63
2023-03-12T13:39:33.715Z,33.08
2023-03-12T13:42:41.250Z,30.80
2023-03-12T13:46:04.481Z,41.30
2023-03-12T13:49:16.653Z,36.58
2023-03-12T13:52:28.333Z,42.17
2023-03-12T13:55:34.172Z,26.33
2023-03-12T13:58:43.873Z,31.05
2023-03-12T14:01:52.753Z,30.98
2023-03-12T14:05:06.346Z,28.15
2023-03-12T14:08:22.318Z,28.75
2023-03-12T14:11:44.791Z,30.48
2023-03-12T14:15:08.982Z,25.65
2023-03-12T14:18:22.298Z,25.27
2023-03-12T14:21:33.245Z,25.30
2023-03-12T14:24:43.453Z,30.85
2023-03-12T14:27:48.769Z,19.65
2023-03-12T14:31:00.967Z,23.25
2023-03-12T14:34:11.359Z,21.95
2023-03-12T14:37:21.539Z,20.63
2023-03-12T14:40:31.891Z,24.27
2023-03-12T14:43:38.119Z,23.67
2023-03-12T14:46:56.918Z,26.02
2023-03-12T14:50:05.099Z,26.50
2023-03-12T14:53:14.377Z,22.58
2023-03-12T14:56:28.703Z,22.13
2023-03-12T14:59:34.466Z,26.00
2023-03-12T15:02:40.594Z,23.20
2023-03-12T15:05:49.565Z,24.30
2023-03-12T15:08:56.173Z,44.92
2023-03-12T15:12:02.971Z,35.20
2023-03-12T15:15:12.197Z,45.45
2023-03-12T15:18:20.181Z,30.20
2023-03-12T15:21:28.612Z,44.25
2023-03-12T15:24:40.046Z,32.65
2023-03-12T15:27:46.408Z,40.53
2023-03-12T15:31:07.627Z,30.90
2023-03-12T15:34:31.415Z,41.40
2023-03-12T15:37:40.472Z,46.72
2023-03-12T15:40:50.930Z,49.70
2023-03-12T15:43:57.952Z,44.70
2023-03-12T15:47:07.827Z,47.42
2023-03-12T15:50:20.016Z,33.25
2023-03-12T15:56:36.505Z,34.47
2023-03-12T15:59:42.537Z,37.28
2023-03-12T16:05:58.605Z,40.80
2023-03-12T16:09:05.598Z,46.08
2023-03-12T16:12:12.284Z,38.63
2023-03-12T16:15:19.132Z,43.05
2023-03-12T16:18:25.846Z,41.20
2023-03-12T16:21:29.760Z,36.63
2023-03-12T16:24:38.136Z,35.75
2023-03-12T16:27:48.773Z,24.85
2023-03-12T16:30:55.545Z,27.25
2023-03-12T16:33:59.638Z,33.58
2023-03-12T16:37:05.962Z,32.85
2023-03-12T16:40:16.341Z,33.17
2023-03-12T16:43:29.468Z,38.60
2023-03-12T16:46:33.862Z,32.17
2023-03-12T16:49:40.489Z,35.40
2023-03-12T16:52:46.275Z,25.73
2023-03-12T16:55:56.648Z,27.05
2023-03-12T16:59:04.849Z,29.60
2023-03-12T17:02:17.825Z,25.30
2023-03-12T17:05:22.132Z,25.30
2023-03-12T17:08:28.117Z,35.13
2023-03-12T17:14:40.234Z,30.05
2023-03-12T17:17:44.714Z,33.95
2023-03-12T17:20:51.457Z,31.08
2023-03-12T17:23:55.351Z,31.73
2023-03-12T17:27:03.936Z,28.80
2023-03-12T17:30:09.033Z,30.95
2023-03-12T17:33:17.350Z,34.13
2023-03-12T17:36:21.224Z,27.67
2023-03-12T17:39:27.212Z,28.35
2023-03-12T17:42:34.097Z,21.23
2023-03-12T17:45:40.024Z,24.85
2023-03-12T17:51:49.616Z,26.20
2023-03-12T17:58:02.632Z,33.65
2023-03-12T18:01:06.757Z,25.63
2023-03-12T18:04:12.634Z,25.05
2023-03-12T18:10:22.863Z,28.83
2023-03-12T18:13:28.759Z,29.13
2023-03-12T18:16:34.716Z,35.30
2023-03-12T18:22:44.801Z,21.70
2023-03-12T18:25:48.765Z,29.60
2023-03-12T18:28:57.714Z,36.70
2023-03-12T18:32:01.634Z,34.88
2023-03-12T18:35:09.134Z,27.73
2023-03-12T18:38:13.320Z,33.67
2023-03-12T18:41:19.270Z,28.02
2023-03-12T18:47:30.851Z,42.80
2023-03-12T18:53:40.724Z,36.30
2023-03-12T18:56:44.638Z,32.88
2023-03-12T18:59:52.682Z,36.70
2023-03-12T19:02:56.642Z,41.33
2023-03-12T19:06:04.703Z,37.60
2023-03-12T19:09:09.060Z,39.85
2023-03-12T19:12:14.999Z,42.05
2023-03-12T19:18:26.775Z,41.42
2023-03-12T19:21:30.740Z,33.50
2023-03-12T19:24:36.915Z,25.83
2023-03-12T19:27:41.102Z,39.72
2023-03-12T19:30:49.196Z,46.63
2023-03-12T19:33:53.552Z,34.92
2023-03-12T19:36:59.467Z,42.53
2023-03-12T19:43:11.083Z,39.47
2023-03-12T19:46:17.027Z,38.47
2023-03-12T19:49:23.638Z,37.05
2023-03-12T19:52:27.574Z,45.50
2023-03-12T19:55:33.684Z,46.33
2023-03-12T19:58:37.616Z,28.67
2023-03-12T20:01:45.412Z,38.75
2023-03-12T20:04:49.344Z,44.15
2023-03-12T20:07:55.315Z,51.30
2023-03-12T20:14:09.543Z,51.28
2023-03-12T20:20:21.736Z,53.80
2023-03-12T20:23:26.099Z,40.63
2023-03-12T20:26:35.106Z,46.22
2023-03-12T20:29:39.403Z,46.70
2023-03-12T20:32:47.499Z,55.67
2023-03-12T20:35:51.486Z,38.17
2023-03-12T20:38:57.367Z,53.47
2023-03-12T20:42:01.219Z,44.70
2023-03-12T20:45:08.949Z,35.83
2023-03-12T20:48:14.818Z,51.42
2023-03-12T20:51:20.864Z,57.75
2023-03-12T20:54:24.789Z,40.50
2023-03-12T20:57:30.675Z,57.75
2023-03-12T21:03:42.930Z,47.67
2023-03-12T21:06:47.058Z,47.15
2023-03-12T21:09:52.907Z,47.75
2023-03-12T21:12:57.235Z,38.92
2023-03-12T21:16:05.861Z,40.88
2023-03-12T21:19:12.209Z,46.92
2023-03-12T21:22:18.082Z,40.10
2023-03-12T21:28:28.032Z,35.60
2023-03-12T21:31:32.068Z,44.78
2023-03-12T21:34:39.927Z,43.00
2023-03-12T21:37:43.941Z,43.17
2023-03-12T21:40:49.855Z,38.28
2023-03-12T21:46:59.884Z,45.28
2023-03-12T21:50:06.497Z,27.98
2023-03-12T21:53:23.310Z,42.53
2023-03-12T21:56:29.616Z,34.60
2023-03-12T21:59:35.577Z,43.95
2023-03-12T22:05:52.366Z,33.08
2023-03-12T22:08:56.550Z,31.73
2023-03-12T22:12:02.909Z,31.58
2023-03-12T22:15:09.152Z,31.58
2023-03-12T22:18:15.064Z,37.88
2023-03-12T22:24:27.993Z,38.08
2023-03-12T22:27:32.954Z,26.05
2023-03-12T22:30:38.841Z,35.70
2023-03-12T22:36:50.720Z,40.90
2023-03-12T22:39:57.629Z,37.15
2023-03-12T22:43:03.748Z,31.10
2023-03-12T22:46:07.960Z,35.30
2023-03-12T22:49:14.133Z,32.50
2023-03-12T22:52:20.198Z,40.60
2023-03-12T22:55:26.762Z,34.38
2023-03-12T22:58:31.106Z,38.50
2023-03-12T23:01:37.591Z,28.92
2023-03-12T23:04:41.622Z,35.13
2023-03-12T23:07:49.769Z,42.67
2023-03-12T23:10:54.818Z,43.72
2023-03-12T23:14:00.686Z,37.55
2023-03-12T23:17:06.829Z,30.10
2023-03-12T23:20:14.309Z,35.88
2023-03-12T23:23:20.144Z,41.58
2023-03-12T23:26:28.172Z,41.53
2023-03-12T23:29:32.124Z,31.35
2023-03-12T23:32:38.070Z,37.13
2023-03-12T23:35:42.262Z,31.98
2023-03-12T23:38:51.402Z,34.50
2023-03-12T23:41:55.752Z,32.50
2023-03-12T23:45:01.853Z,30.52
2023-03-12T23:48:07.281Z,31.48
2023-03-12T23:51:15.264Z,27.10
2023-03-12T23:54:21.371Z,22.48
2023-03-12T23:57:27.474Z,33.42
